createdAt,value
2024-01-14T00:00:03.348Z,5.90
2024-01-14T00:02:39.744Z,5.03
2024-01-14T00:05:10.272Z,5.97
2024-01-14T00:07:41.375Z,5.20
2024-01-14T00:10:11.735Z,5.33
2024-01-14T00:12:43.859Z,6.67
2024-01-14T00:15:14.015Z,6.63
2024-01-14T00:17:43.694Z,5.77
2024-01-14T00:20:14.220Z,5.13
2024-01-14T00:22:43.681Z,5.60
2024-01-14T00:25:14.184Z,5.50
2024-01-14T00:27:46.410Z,5.33
2024-01-14T00:30:16.278Z,5.15
2024-01-14T00:32:45.884Z,5.33
2024-01-14T00:35:15.720Z,5.17
2024-01-14T00:37:45.338Z,5.97
2024-01-14T00:40:15.519Z,6.30
2024-01-14T00:42:47.604Z,5.97
2024-01-14T00:45:17.215Z,6.15
2024-01-14T00:47:46.796Z,5.63
2024-01-14T00:50:16.431Z,5.20
2024-01-14T00:52:45.987Z,5.80
2024-01-14T00:55:15.575Z,6.10
2024-01-14T00:57:48.511Z,5.93
2024-01-14T01:00:18.998Z,4.90
2024-01-14T01:02:48.747Z,5.80
2024-01-14T01:05:18.537Z,5.83
2024-01-14T01:07:48.041Z,6.13
2024-01-14T01:10:18.114Z,5.50
2024-01-14T01:12:50.192Z,5.93
2024-01-14T01:15:19.768Z,5.55
2024-01-14T01:17:49.447Z,6.70
2024-01-14T01:20:19.164Z,5.87
2024-01-14T01:22:50.070Z,6.27
2024-01-14T01:25:19.666Z,6.20
2024-01-14T01:27:51.747Z,5.17
2024-01-14T01:30:21.501Z,5.18
2024-01-14T01:32:51.232Z,6.33
2024-01-14T01:35:20.933Z,5.73
2024-01-14T01:37:50.524Z,5.77
2024-01-14T01:40:20.109Z,5.77
2024-01-14T01:42:53.677Z,6.33
2024-01-14T01:45:23.169Z,6.37
2024-01-14T01:47:53.115Z,6.03
2024-01-14T01:50:22.768Z,5.67
2024-01-14T01:52:52.692Z,5.37
2024-01-14T01:55:22.574Z,5.17
2024-01-14T01:57:55.802Z,5.53
2024-01-14T02:00:25.779Z,5.80
2024-01-14T02:02:55.462Z,5.03
2024-01-14T02:05:25.985Z,5.37
2024-01-14T02:07:55.717Z,5.10
2024-01-14T02:10:25.612Z,5.47
2024-01-14T02:12:59.774Z,5.13
2024-01-14T02:15:29.289Z,5.50
2024-01-14T02:17:59.020Z,5.43
2024-01-14T02:20:28.600Z,5.77
2024-01-14T02:22:59.212Z,5.47
2024-01-14T02:25:32.678Z,5.83
2024-01-14T02:28:02.256Z,5.10
2024-01-14T02:30:33.783Z,5.20
2024-01-14T02:33:03.442Z,5.00
2024-01-14T02:35:33.054Z,4.23
2024-01-14T02:38:02.618Z,6.07
2024-01-14T02:40:35.700Z,5.80
2024-01-14T02:43:05.577Z,4.93
2024-01-14T02:45:35.700Z,5.27
2024-01-14T02:48:05.437Z,5.83
2024-01-14T02:50:34.985Z,5.00
2024-01-14T02:53:04.501Z,5.27
2024-01-14T02:55:36.624Z,5.20
2024-01-14T02:58:06.344Z,4.95
2024-01-14T03:00:35.904Z,5.73
2024-01-14T03:03:05.556Z,5.00
2024-01-14T03:05:35.172Z,5.37
2024-01-14T03:10:49.292Z,5.10
2024-01-14T03:16:00.905Z,4.87
2024-01-14T03:18:36.827Z,5.10
2024-01-14T03:21:06.670Z,5.00
2024-01-14T03:23:36.195Z,4.70
2024-01-14T03:26:08.387Z,4.60
2024-01-14T03:28:37.895Z,4.47
2024-01-14T03:31:09.098Z,3.93
2024-01-14T03:33:38.743Z,3.93
2024-01-14T03:36:09.730Z,4.63
2024-01-14T03:38:39.293Z,4.00
2024-01-14T03:41:11.978Z,4.97
2024-01-14T03:43:41.597Z,3.65
2024-01-14T03:46:11.583Z,4.83
2024-01-14T03:48:41.263Z,4.27
2024-01-14T03:51:11.073Z,4.57
2024-01-14T03:53:40.602Z,3.73
2024-01-14T03:56:12.816Z,4.43
2024-01-14T03:58:42.348Z,4.03
2024-01-14T04:01:19.033Z,3.70
2024-01-14T04:03:49.704Z,3.50
2024-01-14T04:06:23.956Z,3.63
2024-01-14T04:08:53.657Z,4.13
2024-01-14T04:11:25.990Z,4.20
2024-01-14T04:13:55.524Z,3.30
2024-01-14T04:16:25.533Z,3.53
2024-01-14T04:18:55.098Z,3.43
2024-01-14T04:21:25.615Z,2.77
2024-01-14T04:23:55.099Z,3.20
2024-01-14T04:26:27.266Z,3.00
2024-01-14T04:28:56.724Z,3.78
2024-01-14T04:31:26.346Z,2.97
2024-01-14T04:33:56.916Z,3.37
2024-01-14T04:36:26.770Z,3.63
2024-01-14T04:38:56.304Z,3.23
2024-01-14T04:41:28.428Z,3.10
2024-01-14T04:43:57.921Z,2.97
2024-01-14T04:46:27.542Z,2.50
2024-01-14T04:48:57.241Z,2.87
2024-01-14T04:51:26.868Z,2.20
2024-01-14T04:53:56.387Z,2.73
2024-01-14T04:56:28.532Z,2.03
2024-01-14T04:58:58.130Z,2.13
2024-01-14T05:01:27.660Z,2.40
2024-01-14T05:03:57.614Z,2.27
2024-01-14T05:06:27.210Z,2.40
2024-01-14T05:08:56.736Z,2.50
2024-01-14T05:11:28.827Z,2.07
2024-01-14T05:13:58.970Z,1.92
2024-01-14T05:16:28.954Z,2.67
2024-01-14T05:18:58.632Z,2.30
2024-01-14T05:21:28.390Z,2.80
2024-01-14T05:23:58.058Z,2.30
2024-01-14T05:26:30.355Z,2.17
2024-01-14T05:29:01.514Z,2.42
2024-01-14T05:31:32.239Z,1.90
2024-01-14T05:34:01.914Z,2.10
2024-01-14T05:36:31.448Z,1.77
2024-01-14T05:38:58.440Z,2.00
2024-01-14T05:41:30.526Z,2.00
2024-01-14T05:44:00.001Z,2.10
2024-01-14T05:46:29.698Z,2.00
2024-01-14T05:48:59.253Z,2.43
2024-01-14T05:51:28.925Z,2.17
2024-01-14T05:53:58.565Z,2.60
2024-01-14T05:56:31.362Z,1.77
2024-01-14T06:01:31.492Z,2.30
2024-01-14T06:04:01.042Z,1.63
2024-01-14T06:06:30.657Z,1.90
2024-01-14T06:09:00.387Z,1.70
2024-01-14T06:11:32.555Z,2.03
2024-01-14T06:14:02.071Z,2.15
2024-01-14T06:16:31.582Z,2.03
2024-01-14T06:19:01.248Z,1.70
2024-01-14T06:21:30.880Z,2.50
2024-01-14T06:24:00.731Z,1.80
2024-01-14T06:26:32.853Z,2.20
2024-01-14T06:29:02.408Z,2.08
2024-01-14T06:31:31.993Z,2.17
2024-01-14T06:34:01.644Z,2.27
2024-01-14T06:36:31.462Z,2.57
2024-01-14T06:39:01.097Z,2.40
2024-01-14T06:41:33.208Z,2.10
2024-01-14T06:44:02.755Z,1.80
2024-01-14T06:46:32.306Z,2.23
2024-01-14T06:49:02.054Z,2.07
2024-01-14T06:51:31.713Z,2.20
2024-01-14T06:54:01.227Z,2.23
2024-01-14T06:56:34.030Z,2.43
2024-01-14T07:01:32.793Z,2.00
2024-01-14T07:04:02.388Z,2.47
2024-01-14T07:06:31.900Z,1.83
2024-01-14T07:09:01.448Z,2.00
2024-01-14T07:11:33.727Z,1.70
2024-01-14T07:14:03.287Z,2.05
2024-01-14T07:16:32.811Z,2.00
2024-01-14T07:19:02.755Z,2.10
2024-01-14T07:21:32.907Z,2.00
2024-01-14T07:24:02.612Z,1.90
2024-01-14T07:26:34.708Z,2.20
2024-01-14T07:29:04.550Z,2.00
2024-01-14T07:31:34.464Z,2.53
2024-01-14T07:34:05.044Z,2.33
2024-01-14T07:36:34.689Z,3.07
2024-01-14T07:39:06.133Z,2.13
2024-01-14T07:41:38.270Z,2.60
2024-01-14T07:44:09.170Z,2.17
2024-01-14T07:46:38.680Z,2.33
2024-01-14T07:49:08.259Z,2.40
2024-01-14T07:51:37.758Z,2.50
2024-01-14T07:54:07.299Z,2.43
2024-01-14T07:56:39.367Z,3.00
2024-01-14T07:59:08.870Z,2.28
2024-01-14T08:01:38.694Z,2.47
2024-01-14T08:04:09.316Z,2.90
2024-01-14T08:06:38.960Z,2.43
2024-01-14T08:09:10.943Z,2.77
2024-01-14T08:11:43.052Z,2.83
2024-01-14T08:14:12.553Z,2.30
2024-01-14T08:16:42.046Z,2.30
2024-01-14T08:19:11.744Z,2.20
2024-01-14T08:21:45.660Z,2.50
2024-01-14T08:24:15.284Z,2.57
2024-01-14T08:26:51.043Z,2.60
2024-01-14T08:29:25.312Z,3.50
2024-01-14T08:31:56.204Z,2.37
2024-01-14T08:34:25.986Z,2.87
2024-01-14T08:36:55.481Z,2.57
2024-01-14T08:39:24.991Z,2.73
2024-01-14T08:41:57.900Z,2.37
2024-01-14T08:44:30.038Z,3.23
2024-01-14T08:47:00.588Z,2.33
2024-01-14T08:49:31.587Z,2.53
2024-01-14T08:52:02.931Z,2.90
2024-01-14T08:54:34.079Z,2.80
2024-01-14T08:57:07.009Z,2.63
2024-01-14T08:59:36.725Z,2.80
2024-01-14T09:02:06.217Z,2.87
2024-01-14T09:04:35.812Z,3.50
2024-01-14T09:09:43.062Z,3.37
2024-01-14T09:12:15.238Z,4.03
2024-01-14T09:14:44.737Z,4.05
2024-01-14T09:17:14.606Z,3.40
2024-01-14T09:19:44.533Z,3.43
2024-01-14T09:22:14.189Z,3.47
2024-01-14T09:24:46.757Z,3.50
2024-01-14T09:29:48.731Z,3.70
2024-01-14T09:32:18.279Z,4.20
2024-01-14T09:34:47.786Z,3.27
2024-01-14T09:37:17.333Z,4.70
2024-01-14T09:39:46.911Z,3.70
2024-01-14T09:42:25.353Z,3.40
2024-01-14T09:45:02.886Z,3.47
2024-01-14T09:47:32.727Z,3.30
2024-01-14T09:50:04.637Z,3.83
2024-01-14T09:52:34.711Z,3.35
2024-01-14T09:55:04.991Z,4.33
2024-01-14T09:57:38.330Z,3.53
2024-01-14T10:00:10.397Z,3.53
2024-01-14T10:02:39.980Z,3.35
2024-01-14T10:05:11.147Z,4.07
2024-01-14T10:07:42.703Z,4.27
2024-01-14T10:10:12.714Z,3.83
2024-01-14T10:15:15.625Z,4.28
2024-01-14T10:17:48.920Z,4.37
2024-01-14T10:20:18.468Z,4.60
2024-01-14T10:22:50.159Z,4.57
2024-01-14T10:25:21.450Z,4.33
2024-01-14T10:27:53.716Z,5.10
2024-01-14T10:30:24.582Z,5.22
2024-01-14T10:33:18.480Z,4.57
2024-01-14T10:35:43.892Z,4.27
2024-01-14T10:38:13.476Z,5.30
2024-01-14T10:40:43.330Z,5.10
2024-01-14T10:43:15.560Z,4.50
2024-01-14T10:45:45.267Z,4.15
2024-01-14T10:48:15.468Z,3.87
2024-01-14T10:50:48.796Z,3.97
2024-01-14T10:53:24.491Z,4.00
2024-01-14T10:56:00.397Z,4.10
2024-01-14T10:58:37.732Z,4.60
2024-01-14T11:01:11.224Z,4.43
2024-01-14T11:03:44.231Z,3.50
2024-01-14T11:06:19.896Z,4.00
2024-01-14T11:08:49.692Z,4.17
2024-01-14T11:11:21.383Z,4.63
2024-01-14T11:13:58.851Z,4.77
2024-01-14T11:16:36.833Z,4.43
2024-01-14T11:19:21.305Z,4.60
2024-01-14T11:22:26.876Z,4.40
2024-01-14T11:25:03.392Z,4.60
2024-01-14T11:27:33.438Z,4.87
2024-01-14T11:30:06.046Z,4.80
2024-01-14T11:32:35.829Z,4.78
2024-01-14T11:35:06.590Z,5.90
2024-01-14T11:37:46.713Z,5.07
2024-01-14T11:40:30.718Z,4.90
2024-01-14T11:43:08.985Z,5.93
2024-01-14T11:45:42.296Z,5.70
2024-01-14T11:48:14.995Z,4.90
2024-01-14T11:50:44.947Z,5.22
2024-01-14T11:53:14.708Z,5.77
2024-01-14T11:55:47.346Z,4.47
2024-01-14T11:58:21.238Z,4.73
2024-01-14T12:00:55.616Z,5.30
2024-01-14T12:03:25.300Z,5.37
2024-01-14T12:05:56.291Z,4.50
2024-01-14T12:08:25.937Z,5.40
2024-01-14T12:10:55.459Z,5.20
2024-01-14T12:13:24.929Z,4.40
2024-01-14T12:16:01.539Z,5.40
2024-01-14T12:18:46.097Z,5.47
2024-01-14T12:21:26.931Z,6.10
2024-01-14T12:24:02.313Z,4.53
2024-01-14T12:26:31.858Z,6.03
2024-01-14T12:29:01.752Z,5.90
2024-01-14T12:31:49.524Z,5.33
2024-01-14T12:34:26.473Z,5.03
2024-01-14T12:36:56.270Z,4.83
2024-01-14T12:39:28.285Z,4.80
2024-01-14T12:41:58.133Z,5.78
2024-01-14T12:44:28.719Z,4.23
2024-01-14T12:47:10.182Z,5.07
2024-01-14T12:49:40.661Z,6.30
2024-01-14T12:52:11.665Z,4.83
2024-01-14T12:54:41.536Z,5.10
2024-01-14T12:57:17.550Z,5.30
2024-01-14T12:59:53.063Z,5.00
2024-01-14T13:02:25.263Z,5.03
2024-01-14T13:04:56.453Z,5.05
2024-01-14T13:07:27.349Z,5.47
2024-01-14T13:09:58.534Z,5.75
2024-01-14T13:12:28.071Z,4.97
2024-01-14T13:14:57.902Z,5.03
2024-01-14T13:17:30.057Z,5.50
2024-01-14T13:19:59.790Z,4.68
2024-01-14T13:22:29.383Z,4.73
2024-01-14T13:24:58.940Z,5.20
2024-01-14T13:27:28.510Z,5.27
2024-01-14T13:29:58.041Z,5.50
2024-01-14T13:32:31.898Z,4.33
2024-01-14T13:35:02.050Z,5.30
2024-01-14T13:37:31.584Z,5.27
2024-01-14T13:40:01.041Z,4.70
2024-01-14T13:42:31.121Z,4.20
2024-01-14T13:45:01.144Z,4.17
2024-01-14T13:47:33.435Z,4.67
2024-01-14T13:50:03.450Z,4.22
2024-01-14T13:52:33.571Z,4.43
2024-01-14T13:55:03.568Z,4.30
2024-01-14T13:57:33.184Z,4.90
2024-01-14T14:00:02.796Z,4.20
2024-01-14T14:02:37.264Z,4.47
2024-01-14T14:05:09.981Z,3.80
2024-01-14T14:07:41.287Z,3.57
2024-01-14T14:10:12.703Z,4.13
2024-01-14T14:12:42.277Z,3.40
2024-01-14T14:15:12.666Z,3.87
2024-01-14T14:17:48.965Z,3.50
2024-01-14T14:20:20.789Z,4.17
2024-01-14T14:22:50.521Z,3.80
2024-01-14T14:25:20.288Z,3.80
2024-01-14T14:27:49.845Z,4.13
2024-01-14T14:30:24.395Z,3.50
2024-01-14T14:32:57.093Z,2.90
2024-01-14T14:37:56.053Z,3.97
2024-01-14T14:40:25.620Z,2.80
2024-01-14T14:42:55.061Z,4.07
2024-01-14T14:45:24.597Z,3.60
2024-01-14T14:47:56.800Z,3.40
2024-01-14T14:50:26.392Z,3.70
2024-01-14T14:52:55.894Z,3.27
2024-01-14T14:55:25.362Z,3.90
2024-01-14T14:57:54.857Z,3.87
2024-01-14T15:00:24.508Z,3.80
2024-01-14T15:05:29.151Z,3.60
2024-01-14T15:07:58.643Z,4.03
2024-01-14T15:10:28.155Z,3.33
2024-01-14T15:12:57.653Z,3.70
2024-01-14T15:15:30.123Z,3.83
2024-01-14T15:18:02.388Z,3.97
2024-01-14T15:20:31.999Z,3.67
2024-01-14T15:23:02.439Z,3.53
2024-01-14T15:25:31.918Z,3.10
2024-01-14T15:28:01.506Z,3.80
2024-01-14T15:30:31.042Z,4.17
2024-01-14T15:33:03.314Z,3.97
2024-01-14T15:35:33.135Z,4.13
2024-01-14T15:38:02.820Z,4.17
2024-01-14T15:40:32.705Z,5.20
2024-01-14T15:43:02.650Z,5.67
2024-01-14T15:45:32.350Z,5.23
2024-01-14T15:48:06.596Z,6.00
2024-01-14T15:50:36.162Z,6.23
2024-01-14T15:53:05.685Z,6.07
2024-01-14T15:55:35.153Z,6.13
2024-01-14T15:58:04.684Z,5.47
2024-01-14T16:00:34.344Z,6.97
2024-01-14T16:03:07.303Z,6.33
2024-01-14T16:05:37.202Z,6.67
2024-01-14T16:08:07.398Z,6.83
2024-01-14T16:10:36.893Z,10.30
2024-01-14T16:13:06.713Z,7.30
2024-01-14T16:15:36.235Z,7.20
2024-01-14T16:18:08.957Z,6.73
2024-01-14T16:23:07.915Z,5.93
2024-01-14T16:25:38.349Z,6.47
2024-01-14T16:28:09.768Z,6.63
2024-01-14T16:30:39.368Z,6.97
2024-01-14T16:33:12.756Z,6.70
2024-01-14T16:35:51.477Z,6.55
2024-01-14T16:38:24.417Z,6.70
2024-01-14T16:41:02.961Z,6.67
2024-01-14T16:43:35.274Z,6.30
2024-01-14T16:46:05.430Z,6.43
2024-01-14T16:48:38.352Z,6.67
2024-01-14T16:51:11.709Z,6.00
2024-01-14T16:53:43.856Z,6.13
2024-01-14T16:56:16.221Z,6.47
2024-01-14T16:58:46.865Z,6.73
2024-01-14T17:01:19.150Z,6.37
2024-01-14T17:03:52.749Z,7.47
2024-01-14T17:06:22.510Z,6.32
2024-01-14T17:08:52.832Z,6.87
2024-01-14T17:11:23.718Z,6.90
2024-01-14T17:13:53.680Z,8.53
2024-01-14T17:16:25.240Z,12.37
2024-01-14T17:19:01.031Z,8.38
2024-01-14T17:21:31.207Z,8.20
2024-01-14T17:24:00.940Z,7.77
2024-01-14T17:26:30.651Z,7.20
2024-01-14T17:29:00.254Z,7.87
2024-01-14T17:31:29.820Z,8.47
2024-01-14T17:34:01.980Z,7.90
2024-01-14T17:36:31.739Z,7.47
2024-01-14T17:39:02.883Z,7.43
2024-01-14T17:41:32.441Z,6.57
2024-01-14T17:44:02.912Z,7.37
2024-01-14T17:46:32.996Z,7.13
2024-01-14T17:49:05.909Z,8.23
2024-01-14T17:51:36.079Z,8.97
2024-01-14T17:54:05.639Z,9.33
2024-01-14T17:56:35.132Z,7.93
2024-01-14T17:59:06.518Z,8.40
2024-01-14T18:01:36.128Z,9.07
2024-01-14T18:04:08.279Z,8.27
2024-01-14T18:06:37.917Z,9.00
2024-01-14T18:09:08.233Z,8.23
2024-01-14T18:11:37.735Z,8.10
2024-01-14T18:14:07.239Z,7.77
2024-01-14T18:16:36.749Z,8.50
2024-01-14T18:19:08.900Z,9.03
2024-01-14T18:21:38.569Z,10.38
2024-01-14T18:24:09.335Z,8.10
2024-01-14T18:26:39.603Z,8.00
2024-01-14T18:29:09.139Z,8.00
2024-01-14T18:31:39.039Z,9.33
2024-01-14T18:34:11.358Z,7.93
2024-01-14T18:36:41.087Z,8.43
2024-01-14T18:39:10.707Z,8.93
2024-01-14T18:41:40.386Z,8.27
2024-01-14T18:44:09.976Z,9.67
2024-01-14T18:46:39.712Z,9.77
2024-01-14T18:49:12.521Z,10.77
2024-01-14T18:54:14.389Z,9.17
2024-01-14T18:56:44.824Z,9.50
2024-01-14T18:59:15.677Z,9.47
2024-01-14T19:01:45.178Z,9.07
2024-01-14T19:04:17.836Z,9.00
2024-01-14T19:09:17.443Z,8.43
2024-01-14T19:11:46.935Z,8.80
2024-01-14T19:14:16.438Z,8.10
2024-01-14T19:16:46.721Z,9.40
2024-01-14T19:19:21.365Z,9.53
2024-01-14T19:21:52.588Z,7.93
2024-01-14T19:24:22.125Z,8.63
2024-01-14T19:26:51.749Z,9.67
2024-01-14T19:29:22.117Z,8.63
2024-01-14T19:31:52.391Z,7.37
2024-01-14T19:34:24.949Z,7.60
2024-01-14T19:36:54.558Z,7.32
2024-01-14T19:39:26.172Z,7.60
2024-01-14T19:41:55.913Z,8.17
2024-01-14T19:44:25.414Z,8.17
2024-01-14T19:46:55.122Z,8.27
2024-01-14T19:49:27.424Z,7.17
2024-01-14T19:51:57.006Z,7.07
2024-01-14T19:54:27.358Z,7.13
2024-01-14T19:56:57.127Z,6.53
2024-01-14T19:59:26.627Z,7.40
2024-01-14T20:01:56.124Z,7.30
2024-01-14T20:04:28.331Z,7.17
2024-01-14T20:06:57.895Z,6.57
2024-01-14T20:09:27.706Z,6.77
2024-01-14T20:12:01.141Z,5.73
2024-01-14T20:14:31.025Z,6.60
2024-01-14T20:17:00.686Z,6.33
2024-01-14T20:19:32.848Z,6.83
2024-01-14T20:22:02.469Z,7.72
2024-01-14T20:24:35.777Z,6.57
2024-01-14T20:27:05.465Z,6.90
2024-01-14T20:29:34.984Z,6.90
2024-01-14T20:32:05.130Z,6.30
2024-01-14T20:34:37.762Z,6.27
2024-01-14T20:37:07.410Z,5.40
2024-01-14T20:39:37.029Z,6.67
2024-01-14T20:42:08.983Z,6.93
2024-01-14T20:44:39.027Z,7.40
2024-01-14T20:47:09.753Z,6.60
2024-01-14T20:49:43.334Z,6.97
2024-01-14T20:52:13.591Z,5.97
2024-01-14T20:54:43.261Z,6.90
2024-01-14T20:57:13.304Z,7.23
2024-01-14T20:59:43.393Z,6.47
2024-01-14T21:02:12.902Z,7.33
2024-01-14T21:04:44.981Z,6.50
2024-01-14T21:07:14.844Z,5.63
2024-01-14T21:09:47.022Z,5.80
2024-01-14T21:12:16.657Z,5.65
2024-01-14T21:14:46.285Z,6.87
2024-01-14T21:17:15.786Z,5.70
2024-01-14T21:19:48.055Z,6.70
2024-01-14T21:22:18.198Z,6.25
2024-01-14T21:24:47.721Z,6.40
2024-01-14T21:27:17.365Z,6.13
2024-01-14T21:29:46.913Z,5.53
2024-01-14T21:32:16.592Z,5.87
2024-01-14T21:34:48.734Z,6.50
2024-01-14T21:37:18.842Z,5.90
2024-01-14T21:39:48.403Z,5.97
2024-01-14T21:42:18.022Z,7.03
2024-01-14T21:44:49.912Z,6.73
2024-01-14T21:47:19.354Z,6.20
2024-01-14T21:49:52.297Z,6.80
2024-01-14T21:52:22.185Z,6.60
2024-01-14T21:54:51.658Z,5.80
2024-01-14T21:57:21.746Z,5.53
2024-01-14T21:59:51.239Z,6.57
2024-01-14T22:02:20.869Z,6.50
2024-01-14T22:04:53.035Z,7.67
2024-01-14T22:07:22.595Z,7.70
2024-01-14T22:09:52.199Z,6.97
2024-01-14T22:12:21.726Z,6.97
2024-01-14T22:14:51.216Z,6.50
2024-01-14T22:17:20.701Z,6.80
2024-01-14T22:19:52.947Z,6.57
2024-01-14T22:22:22.895Z,6.30
2024-01-14T22:24:52.631Z,6.53
2024-01-14T22:27:22.515Z,6.27
2024-01-14T22:29:53.012Z,6.47
2024-01-14T22:32:23.851Z,6.33
2024-01-14T22:34:56.016Z,6.20
2024-01-14T22:37:26.866Z,6.97
2024-01-14T22:39:56.585Z,6.23
2024-01-14T22:42:26.059Z,6.50
2024-01-14T22:44:55.564Z,5.60
2024-01-14T22:47:25.750Z,6.43
2024-01-14T22:49:57.889Z,6.87
2024-01-14T22:52:27.495Z,7.00
2024-01-14T22:54:57.097Z,6.23
2024-01-14T22:57:26.644Z,6.23
2024-01-14T22:59:56.212Z,5.83
2024-01-14T23:02:25.679Z,6.17
2024-01-14T23:04:58.081Z,6.10
2024-01-14T23:07:27.852Z,5.20
2024-01-14T23:09:57.364Z,7.03
2024-01-14T23:12:26.938Z,6.80
2024-01-14T23:14:56.477Z,6.13
2024-01-14T23:17:26.270Z,5.60
2024-01-14T23:19:58.377Z,5.87
2024-01-14T23:22:28.079Z,5.40
2024-01-14T23:24:57.584Z,4.63
2024-01-14T23:27:27.252Z,5.23
2024-01-14T23:29:56.771Z,4.57
2024-01-14T23:32:27.033Z,5.47
2024-01-14T23:34:59.349Z,5.37
2024-01-14T23:37:28.968Z,5.00
2024-01-14T23:39:58.491Z,6.30
2024-01-14T23:42:28.046Z,5.73
2024-01-14T23:44:57.598Z,5.53
2024-01-14T23:47:27.167Z,6.00
2024-01-14T23:49:59.511Z,4.97
2024-01-14T23:52:29.171Z,5.97
2024-01-14T23:54:58.770Z,6.13
2024-01-14T23:57:25.777Z,5.80
2024-01-14T23:59:55.326Z,4.73
